sensor_id;sensor_type;location;lat;lon;timestamp;pressure;altitude;pressure_sealevel;temperature;humidity
65329;BME280;51941;52.210;5.158;2024-01-27T00:00:47;103416.06;;;1.91;80.05
65329;BME280;51941;52.210;5.158;2024-01-27T00:03:14;103406.19;;;1.86;80.58
65329;BME280;51941;52.210;5.158;2024-01-27T00:05:42;103408.84;;;1.86;80.39
65329;BME280;51941;52.210;5.158;2024-01-27T00:08:09;103414.41;;;1.85;80.14
65329;BME280;51941;52.210;5.158;2024-01-27T00:10:35;103413.59;;;1.84;80.23
65329;BME280;51941;52.210;5.158;2024-01-27T00:13:03;103422.38;;;1.85;79.57
65329;BME280;51941;52.210;5.158;2024-01-27T00:15:30;103425.81;;;1.85;79.18
65329;BME280;51941;52.210;5.158;2024-01-27T00:17:56;103430.09;;;1.86;78.92
65329;BME280;51941;52.210;5.158;2024-01-27T00:20:23;103431.16;;;1.85;79.20
65329;BME280;51941;52.210;5.158;2024-01-27T00:22:51;103426.09;;;1.84;79.92
65329;BME280;51941;52.210;5.158;2024-01-27T00:25:18;103427.66;;;1.80;80.50
65329;BME280;51941;52.210;5.158;2024-01-27T00:27:44;103428.69;;;1.78;80.93
65329;BME280;51941;52.210;5.158;2024-01-27T00:30:11;103420.72;;;1.78;80.78
65329;BME280;51941;52.210;5.158;2024-01-27T00:32:38;103426.03;;;1.78;81.00
65329;BME280;51941;52.210;5.158;2024-01-27T00:35:06;103420.16;;;1.76;81.01
65329;BME280;51941;52.210;5.158;2024-01-27T00:37:33;103420.38;;;1.75;80.94
65329;BME280;51941;52.210;5.158;2024-01-27T00:40:01;103428.34;;;1.75;80.27
65329;BME280;51941;52.210;5.158;2024-01-27T00:42:28;103420.38;;;1.75;80.15
65329;BME280;51941;52.210;5.158;2024-01-27T00:44:55;103425.38;;;1.71;80.26
65329;BME280;51941;52.210;5.158;2024-01-27T00:47:21;103423.00;;;1.70;80.07
65329;BME280;51941;52.210;5.158;2024-01-27T00:49:48;103420.56;;;1.68;80.30
65329;BME280;51941;52.210;5.158;2024-01-27T00:52:15;103429.56;;;1.67;80.62
65329;BME280;51941;52.210;5.158;2024-01-27T00:54:41;103426.63;;;1.64;80.85
65329;BME280;51941;52.210;5.158;2024-01-27T00:57:10;103422.59;;;1.61;80.80
65329;BME280;51941;52.210;5.158;2024-01-27T00:59:36;103421.78;;;1.61;80.74
65329;BME280;51941;52.210;5.158;2024-01-27T01:02:04;103425.75;;;1.58;81.22
65329;BME280;51941;52.210;5.158;2024-01-27T01:04:31;103421.47;;;1.57;80.87
65329;BME280;51941;52.210;5.158;2024-01-27T01:06:57;103419.88;;;1.56;80.40
65329;BME280;51941;52.210;5.158;2024-01-27T01:09:24;103420.91;;;1.55;80.85
65329;BME280;51941;52.210;5.158;2024-01-27T01:11:51;103429.13;;;1.53;80.40
65329;BME280;51941;52.210;5.158;2024-01-27T01:14:19;103429.13;;;1.53;79.91
65329;BME280;51941;52.210;5.158;2024-01-27T01:16:46;103424.88;;;1.52;80.44
65329;BME280;51941;52.210;5.158;2024-01-27T01:19:12;103440.81;;;1.52;80.58
65329;BME280;51941;52.210;5.158;2024-01-27T01:21:39;103437.34;;;1.52;80.37
65329;BME280;51941;52.210;5.158;2024-01-27T01:24:06;103433.06;;;1.51;80.40
65329;BME280;51941;52.210;5.158;2024-01-27T01:26:33;103440.81;;;1.52;80.13
65329;BME280;51941;52.210;5.158;2024-01-27T01:28:59;103442.91;;;1.50;80.91
65329;BME280;51941;52.210;5.158;2024-01-27T01:31:27;103444.72;;;1.50;80.93
65329;BME280;51941;52.210;5.158;2024-01-27T01:33:54;103437.81;;;1.49;81.24
65329;BME280;51941;52.210;5.158;2024-01-27T01:36:21;103440.47;;;1.49;80.93
65329;BME280;51941;52.210;5.158;2024-01-27T01:38:47;103432.75;;;1.47;81.11
65329;BME280;51941;52.210;5.158;2024-01-27T01:41:14;103431.16;;;1.46;81.53
65329;BME280;51941;52.210;5.158;2024-01-27T01:43:41;103431.41;;;1.45;81.61
65329;BME280;51941;52.210;5.158;2024-01-27T01:46:08;103431.41;;;1.45;81.53
65329;BME280;51941;52.210;5.158;2024-01-27T01:48:35;103431.63;;;1.43;81.57
65329;BME280;51941;52.210;5.158;2024-01-27T01:51:03;103436.38;;;1.41;81.41
65329;BME280;51941;52.210;5.158;2024-01-27T01:53:30;103433.97;;;1.40;81.33
65329;BME280;51941;52.210;5.158;2024-01-27T01:55:57;103439.50;;;1.38;81.22
65329;BME280;51941;52.210;5.158;2024-01-27T01:58:24;103435.03;;;1.38;81.10
65329;BME280;51941;52.210;5.158;2024-01-27T02:00:51;103436.06;;;1.37;81.39
65329;BME280;51941;52.210;5.158;2024-01-27T02:03:17;103438.47;;;1.39;80.49
65329;BME280;51941;52.210;5.158;2024-01-27T02:05:49;103451.28;;;1.42;80.24
65329;BME280;51941;52.210;5.158;2024-01-27T02:08:17;103450.44;;;1.42;80.59
65329;BME280;51941;52.210;5.158;2024-01-27T02:10:43;103443.56;;;1.41;81.25
65329;BME280;51941;52.210;5.158;2024-01-27T02:13:21;103447.47;;;1.38;81.57
65329;BME280;51941;52.210;5.158;2024-01-27T02:15:50;103449.09;;;1.39;81.47
65329;BME280;51941;52.210;5.158;2024-01-27T02:18:17;103444.03;;;1.37;81.62
65329;BME280;51941;52.210;5.158;2024-01-27T02:20:43;103445.66;;;1.38;81.10
65329;BME280;51941;52.210;5.158;2024-01-27T02:23:11;103443.78;;;1.39;80.85
65329;BME280;51941;52.210;5.158;2024-01-27T02:25:39;103436.06;;;1.37;81.36
65329;BME280;51941;52.210;5.158;2024-01-27T02:28:06;103439.50;;;1.38;80.91
65329;BME280;51941;52.210;5.158;2024-01-27T02:30:33;103440.56;;;1.37;81.62
65329;BME280;51941;52.210;5.158;2024-01-27T02:32:59;103445.09;;;1.36;81.65
65329;BME280;51941;52.210;5.158;2024-01-27T02:35:26;103447.97;;;1.35;81.72
65329;BME280;51941;52.210;5.158;2024-01-27T02:37:53;103445.88;;;1.37;81.35
65329;BME280;51941;52.210;5.158;2024-01-27T02:40:19;103451.44;;;1.35;81.29
65329;BME280;51941;52.210;5.158;2024-01-27T02:42:47;103453.53;;;1.33;81.33
65329;BME280;51941;52.210;5.158;2024-01-27T02:45:14;103456.41;;;1.32;82.08
65329;BME280;51941;52.210;5.158;2024-01-27T02:47:41;103439.91;;;1.30;81.45
65329;BME280;51941;52.210;5.158;2024-01-27T02:50:08;103445.22;;;1.30;81.49
65329;BME280;51941;52.210;5.158;2024-01-27T02:52:35;103454.50;;;1.27;81.50
65329;BME280;51941;52.210;5.158;2024-01-27T02:55:02;103446.53;;;1.27;81.41
65329;BME280;51941;52.210;5.158;2024-01-27T02:57:29;103440.41;;;1.27;80.91
65329;BME280;51941;52.210;5.158;2024-01-27T02:59:57;103448.84;;;1.24;81.26
65329;BME280;51941;52.210;5.158;2024-01-27T03:02:24;103441.94;;;1.23;81.23
65329;BME280;51941;52.210;5.158;2024-01-27T03:04:51;103447.50;;;1.21;81.36
65329;BME280;51941;52.210;5.158;2024-01-27T03:07:17;103444.84;;;1.21;80.87
65329;BME280;51941;52.210;5.158;2024-01-27T03:09:44;103449.34;;;1.21;81.48
65329;BME280;51941;52.210;5.158;2024-01-27T03:12:10;103448.28;;;1.22;81.26
65329;BME280;51941;52.210;5.158;2024-01-27T03:14:38;103444.03;;;1.21;81.08
65329;BME280;51941;52.210;5.158;2024-01-27T03:17:06;103445.88;;;1.20;81.00
65329;BME280;51941;52.210;5.158;2024-01-27T03:19:33;103449.34;;;1.21;80.74
65329;BME280;51941;52.210;5.158;2024-01-27T03:21:59;103449.34;;;1.21;80.70
65329;BME280;51941;52.210;5.158;2024-01-27T03:24:26;103451.69;;;1.17;82.12
65329;BME280;51941;52.210;5.158;2024-01-27T03:26:52;103449.03;;;1.17;81.61
65329;BME280;51941;52.210;5.158;2024-01-27T03:29:19;103447.97;;;1.18;81.72
65329;BME280;51941;52.210;5.158;2024-01-27T03:31:46;103443.72;;;1.17;82.49
65329;BME280;51941;52.210;5.158;2024-01-27T03:34:16;103454.09;;;1.18;82.18
65329;BME280;51941;52.210;5.158;2024-01-27T03:36:47;103450.38;;;1.20;81.04
65329;BME280;51941;52.210;5.158;2024-01-27T03:39:14;103452.81;;;1.21;80.78
65329;BME280;51941;52.210;5.158;2024-01-27T03:41:41;103458.13;;;1.21;80.74
65329;BME280;51941;52.210;5.158;2024-01-27T03:44:07;103462.63;;;1.21;80.66
65329;BME280;51941;52.210;5.158;2024-01-27T03:46:34;103467.38;;;1.18;81.46
65329;BME280;51941;52.210;5.158;2024-01-27T03:49:02;103467.38;;;1.18;80.95
65329;BME280;51941;52.210;5.158;2024-01-27T03:51:31;103464.94;;;1.17;81.15
65329;BME280;51941;52.210;5.158;2024-01-27T03:53:58;103464.94;;;1.17;81.50
65329;BME280;51941;52.210;5.158;2024-01-27T03:56:24;103458.25;;;1.14;81.14
65329;BME280;51941;52.210;5.158;2024-01-27T03:58:51;103457.22;;;1.15;80.86
65329;BME280;51941;52.210;5.158;2024-01-27T04:01:18;103461.41;;;1.11;81.81
65329;BME280;51941;52.210;5.158;2024-01-27T04:03:44;103460.59;;;1.11;80.77
65329;BME280;51941;52.210;5.158;2024-01-27T04:06:11;103461.06;;;1.08;81.71
65329;BME280;51941;52.210;5.158;2024-01-27T04:08:40;103454.97;;;1.07;81.99
65329;BME280;51941;52.210;5.158;2024-01-27T04:11:09;103455.75;;;1.08;81.39
65329;BME280;51941;52.210;5.158;2024-01-27T04:13:35;103468.25;;;1.07;81.24
65329;BME280;51941;52.210;5.158;2024-01-27T04:16:02;103464.22;;;1.05;81.30
65329;BME280;51941;52.210;5.158;2024-01-27T04:18:29;103466.88;;;1.05;81.72
65329;BME280;51941;52.210;5.158;2024-01-27T04:20:56;103472.66;;;1.02;81.69
65329;BME280;51941;52.210;5.158;2024-01-27T04:23:22;103471.03;;;1.01;82.19
65329;BME280;51941;52.210;5.158;2024-01-27T04:25:51;103465.16;;;0.98;81.68
65329;BME280;51941;52.210;5.158;2024-01-27T04:28:17;103460.09;;;0.97;81.99
65329;BME280;51941;52.210;5.158;2024-01-27T04:30:44;103464.84;;;0.95;82.81
65329;BME280;51941;52.210;5.158;2024-01-27T04:33:11;103471.41;;;0.92;83.11
65329;BME280;51941;52.210;5.158;2024-01-27T04:35:38;103471.19;;;0.94;83.00
65329;BME280;51941;52.210;5.158;2024-01-27T04:38:04;103472.69;;;0.90;83.30
65329;BME280;51941;52.210;5.158;2024-01-27T04:40:30;103478.81;;;0.90;83.27
65329;BME280;51941;52.210;5.158;2024-01-27T04:42:59;103480.66;;;0.90;83.00
65329;BME280;51941;52.210;5.158;2024-01-27T04:45:26;103491.03;;;0.91;82.54
65329;BME280;51941;52.210;5.158;2024-01-27T04:47:53;103494.97;;;0.89;82.36
65329;BME280;51941;52.210;5.158;2024-01-27T04:50:20;103492.31;;;0.89;82.33
65329;BME280;51941;52.210;5.158;2024-01-27T04:52:47;103488.06;;;0.88;82.79
65329;BME280;51941;52.210;5.158;2024-01-27T04:55:14;103489.66;;;0.89;82.40
65329;BME280;51941;52.210;5.158;2024-01-27T04:57:41;103480.09;;;0.88;82.55
65329;BME280;51941;52.210;5.158;2024-01-27T05:00:10;103478.25;;;0.88;82.57
65329;BME280;51941;52.210;5.158;2024-01-27T05:02:39;103475.81;;;0.87;83.13
65329;BME280;51941;52.210;5.158;2024-01-27T05:05:06;103482.75;;;0.88;82.83
65329;BME280;51941;52.210;5.158;2024-01-27T05:07:33;103475.59;;;0.88;82.40
65329;BME280;51941;52.210;5.158;2024-01-27T05:09:59;103470.28;;;0.88;82.58
65329;BME280;51941;52.210;5.158;2024-01-27T05:12:26;103472.94;;;0.88;82.27
65329;BME280;51941;52.210;5.158;2024-01-27T05:14:53;103479.31;;;0.87;82.85
65329;BME280;51941;52.210;5.158;2024-01-27T05:17:21;103482.75;;;0.88;82.37
65329;BME280;51941;52.210;5.158;2024-01-27T05:19:49;103475.81;;;0.87;82.46
65329;BME280;51941;52.210;5.158;2024-01-27T05:22:16;103479.31;;;0.87;82.54
65329;BME280;51941;52.210;5.158;2024-01-27T05:24:42;103463.38;;;0.87;81.85
65329;BME280;51941;52.210;5.158;2024-01-27T05:27:09;103471.34;;;0.87;82.17
65329;BME280;51941;52.210;5.158;2024-01-27T05:29:36;103462.94;;;0.78;83.88
65329;BME280;51941;52.210;5.158;2024-01-27T05:32:03;103461.69;;;0.81;83.29
65329;BME280;51941;52.210;5.158;2024-01-27T05:34:31;103467.22;;;0.80;83.58
65329;BME280;51941;52.210;5.158;2024-01-27T05:36:58;103459.25;;;0.80;83.61
65329;BME280;51941;52.210;5.158;2024-01-27T05:39:25;103451.53;;;0.78;83.17
65329;BME280;51941;52.210;5.158;2024-01-27T05:41:51;103452.56;;;0.77;83.28
65329;BME280;51941;52.210;5.158;2024-01-27T05:44:18;103457.06;;;0.76;82.74
65329;BME280;51941;52.210;5.158;2024-01-27T05:46:45;103457.31;;;0.75;83.30
65329;BME280;51941;52.210;5.158;2024-01-27T05:49:12;103462.59;;;0.75;83.07
65329;BME280;51941;52.210;5.158;2024-01-27T05:51:40;103459.16;;;0.74;83.15
65329;BME280;51941;52.210;5.158;2024-01-27T05:54:08;103453.28;;;0.72;83.46
65329;BME280;51941;52.210;5.158;2024-01-27T05:56:35;103461.75;;;0.69;84.11
65329;BME280;51941;52.210;5.158;2024-01-27T05:59:03;103459.09;;;0.69;83.92
65329;BME280;51941;52.210;5.158;2024-01-27T06:01:30;103461.97;;;0.68;83.86
65329;BME280;51941;52.210;5.158;2024-01-27T06:03:56;103471.53;;;0.69;83.87
65329;BME280;51941;52.210;5.158;2024-01-27T06:06:24;103460.13;;;0.68;83.90
65329;BME280;51941;52.210;5.158;2024-01-27T06:08:53;103475.22;;;0.68;84.03
65329;BME280;51941;52.210;5.158;2024-01-27T06:11:23;103476.25;;;0.67;83.67
65329;BME280;51941;52.210;5.158;2024-01-27T06:13:50;103469.13;;;0.67;83.63
65329;BME280;51941;52.210;5.158;2024-01-27T06:16:17;103470.94;;;0.67;83.71
65329;BME280;51941;52.210;5.158;2024-01-27T06:18:44;103469.13;;;0.67;83.29
65329;BME280;51941;52.210;5.158;2024-01-27T06:21:11;103465.41;;;0.68;82.83
65329;BME280;51941;52.210;5.158;2024-01-27T06:23:38;103468.06;;;0.68;83.29
65329;BME280;51941;52.210;5.158;2024-01-27T06:26:06;103461.16;;;0.67;83.14
65329;BME280;51941;52.210;5.158;2024-01-27T06:28:33;103468.28;;;0.67;83.37
65329;BME280;51941;52.210;5.158;2024-01-27T06:31:00;103462.19;;;0.66;82.99
65329;BME280;51941;52.210;5.158;2024-01-27T06:33:27;103471.19;;;0.65;83.44
65329;BME280;51941;52.210;5.158;2024-01-27T06:35:54;103467.50;;;0.66;83.84
65329;BME280;51941;52.210;5.158;2024-01-27T06:38:20;103455.88;;;0.67;83.20
65329;BME280;51941;52.210;5.158;2024-01-27T06:40:47;103461.97;;;0.68;83.32
65329;BME280;51941;52.210;5.158;2024-01-27T06:43:15;103451.34;;;0.68;83.04
65329;BME280;51941;52.210;5.158;2024-01-27T06:45:42;103456.66;;;0.68;83.55
65329;BME280;51941;52.210;5.158;2024-01-27T06:48:09;103466.47;;;0.67;83.28
65329;BME280;51941;52.210;5.158;2024-01-27T06:50:35;103461.41;;;0.66;83.79
65329;BME280;51941;52.210;5.158;2024-01-27T06:53:02;103467.72;;;0.65;83.82
65329;BME280;51941;52.210;5.158;2024-01-27T06:55:29;103467.72;;;0.65;83.67
65329;BME280;51941;52.210;5.158;2024-01-27T06:57:55;103453.69;;;0.64;83.80
65329;BME280;51941;52.210;5.158;2024-01-27T07:00:24;103469.03;;;0.62;83.92
65329;BME280;51941;52.210;5.158;2024-01-27T07:02:50;103473.25;;;0.63;84.04
65329;BME280;51941;52.210;5.158;2024-01-27T07:05:17;103476.19;;;0.62;83.98
65329;BME280;51941;52.210;5.158;2024-01-27T07:07:44;103475.91;;;0.63;83.56
65329;BME280;51941;52.210;5.158;2024-01-27T07:10:10;103472.97;;;0.60;83.91
65329;BME280;51941;52.210;5.158;2024-01-27T07:12:37;103480.91;;;0.60;83.67
65329;BME280;51941;52.210;5.158;2024-01-27T07:15:05;103473.19;;;0.58;83.77
65329;BME280;51941;52.210;5.158;2024-01-27T07:17:33;103472.13;;;0.59;83.30
65329;BME280;51941;52.210;5.158;2024-01-27T07:20:00;103474.78;;;0.59;83.75
65329;BME280;51941;52.210;5.158;2024-01-27T07:22:26;103489.66;;;0.60;83.50
65329;BME280;51941;52.210;5.158;2024-01-27T07:24:53;103482.50;;;0.61;83.65
65329;BME280;51941;52.210;5.158;2024-01-27T07:27:22;103491.25;;;0.61;83.60
65329;BME280;51941;52.210;5.158;2024-01-27T07:29:49;103495.31;;;0.64;84.03
65329;BME280;51941;52.210;5.158;2024-01-27T07:32:15;103502.22;;;0.65;83.70
65329;BME280;51941;52.210;5.158;2024-01-27T07:34:44;103498.03;;;0.69;83.70
65329;BME280;51941;52.210;5.158;2024-01-27T07:37:10;103505.53;;;0.72;83.24
65329;BME280;51941;52.210;5.158;2024-01-27T07:39:37;103501.59;;;0.74;83.03
65329;BME280;51941;52.210;5.158;2024-01-27T07:42:04;103503.53;;;0.79;83.26
65329;BME280;51941;52.210;5.158;2024-01-27T07:44:31;103493.53;;;0.81;83.33
65329;BME280;51941;52.210;5.158;2024-01-27T07:46:57;103494.88;;;0.84;83.32
65329;BME280;51941;52.210;5.158;2024-01-27T07:49:24;103507.66;;;0.87;82.98
65329;BME280;51941;52.210;5.158;2024-01-27T07:51:52;103505.34;;;0.90;83.32
65329;BME280;51941;52.210;5.158;2024-01-27T07:54:19;103508.56;;;0.92;83.28
65329;BME280;51941;52.210;5.158;2024-01-27T07:56:45;103511.09;;;0.99;83.66
65329;BME280;51941;52.210;5.158;2024-01-27T07:59:12;103513.81;;;1.04;83.50
65329;BME280;51941;52.210;5.158;2024-01-27T08:01:40;103509.91;;;1.07;84.28
65329;BME280;51941;52.210;5.158;2024-01-27T08:04:07;103518.72;;;1.12;84.08
65329;BME280;51941;52.210;5.158;2024-01-27T08:06:34;103515.16;;;1.18;83.89
65329;BME280;51941;52.210;5.158;2024-01-27T08:09:14;103505.16;;;1.26;83.71
65329;BME280;51941;52.210;5.158;2024-01-27T08:11:42;103498.88;;;1.32;83.72
65329;BME280;51941;52.210;5.158;2024-01-27T08:14:09;103504.28;;;1.37;83.79
65329;BME280;51941;52.210;5.158;2024-01-27T08:16:36;103503.91;;;1.45;83.83
65329;BME280;51941;52.210;5.158;2024-01-27T08:19:03;103505.03;;;1.49;83.59
65329;BME280;51941;52.210;5.158;2024-01-27T08:21:30;103518.44;;;1.60;83.42
65329;BME280;51941;52.210;5.158;2024-01-27T08:23:57;103514.59;;;1.67;83.52
65329;BME280;51941;52.210;5.158;2024-01-27T08:26:25;103501.97;;;1.74;83.10
65329;BME280;51941;52.210;5.158;2024-01-27T08:28:51;103503.63;;;1.81;82.93
65329;BME280;51941;52.210;5.158;2024-01-27T08:31:19;103511.13;;;1.84;83.07
65329;BME280;51941;52.210;5.158;2024-01-27T08:33:46;103502.19;;;1.90;82.71
65329;BME280;51941;52.210;5.158;2024-01-27T08:36:13;103506.84;;;2.00;82.52
65329;BME280;51941;52.210;5.158;2024-01-27T08:38:40;103513.84;;;2.06;82.64
65329;BME280;51941;52.210;5.158;2024-01-27T08:41:10;103516.63;;;2.16;82.60
65329;BME280;51941;52.210;5.158;2024-01-27T08:43:38;103512.25;;;2.27;82.38
65329;BME280;51941;52.210;5.158;2024-01-27T08:46:04;103522.16;;;2.31;82.25
65329;BME280;51941;52.210;5.158;2024-01-27T08:48:33;103516.16;;;2.41;82.14
65329;BME280;51941;52.210;5.158;2024-01-27T08:50:59;103521.81;;;2.50;82.00
65329;BME280;51941;52.210;5.158;2024-01-27T08:53:26;103527.53;;;2.59;81.93
65329;BME280;51941;52.210;5.158;2024-01-27T08:55:53;103529.75;;;2.67;81.79
65329;BME280;51941;52.210;5.158;2024-01-27T08:58:19;103517.88;;;2.74;81.70
65329;BME280;51941;52.210;5.158;2024-01-27T09:00:48;103518.75;;;2.85;81.51
65329;BME280;51941;52.210;5.158;2024-01-27T09:03:14;103519.38;;;2.92;81.43
65329;BME280;51941;52.210;5.158;2024-01-27T09:05:41;103521.28;;;2.97;81.27
65329;BME280;51941;52.210;5.158;2024-01-27T09:08:10;103516.78;;;2.97;81.10
65329;BME280;51941;52.210;5.158;2024-01-27T09:10:37;103513.06;;;2.99;81.18
65329;BME280;51941;52.210;5.158;2024-01-27T09:13:04;103530.88;;;2.98;81.09
65329;BME280;51941;52.210;5.158;2024-01-27T09:15:31;103530.56;;;2.94;80.83
65329;BME280;51941;52.210;5.158;2024-01-27T09:17:59;103532.94;;;2.91;80.92
65329;BME280;51941;52.210;5.158;2024-01-27T09:20:25;103528.91;;;2.88;80.83
65329;BME280;51941;52.210;5.158;2024-01-27T09:22:52;103533.44;;;2.88;80.96
65329;BME280;51941;52.210;5.158;2024-01-27T09:25:19;103529.72;;;2.89;80.98
65329;BME280;51941;52.210;5.158;2024-01-27T09:27:45;103536.66;;;2.90;81.22
65329;BME280;51941;52.210;5.158;2024-01-27T09:30:13;103542.28;;;2.93;81.19
65329;BME280;51941;52.210;5.158;2024-01-27T09:32:40;103545.25;;;2.97;81.05
65329;BME280;51941;52.210;5.158;2024-01-27T09:35:08;103544.19;;;2.98;81.18
65329;BME280;51941;52.210;5.158;2024-01-27T09:37:34;103546.34;;;3.01;81.19
65329;BME280;51941;52.210;5.158;2024-01-27T09:40:01;103552.78;;;3.05;81.38
65329;BME280;51941;52.210;5.158;2024-01-27T09:42:32;103543.81;;;3.11;80.90
65329;BME280;51941;52.210;5.158;2024-01-27T09:45:02;103552.63;;;3.17;81.08
65329;BME280;51941;52.210;5.158;2024-01-27T09:47:29;103562.03;;;3.25;80.72
65329;BME280;51941;52.210;5.158;2024-01-27T09:49:56;103562.88;;;3.30;80.68
65329;BME280;51941;52.210;5.158;2024-01-27T09:52:25;103564.81;;;3.35;80.84
65329;BME280;51941;52.210;5.158;2024-01-27T09:54:54;103569.13;;;3.41;80.90
65329;BME280;51941;52.210;5.158;2024-01-27T09:57:21;103568.09;;;3.47;80.75
65329;BME280;51941;52.210;5.158;2024-01-27T09:59:49;103577.75;;;3.53;80.61
65329;BME280;51941;52.210;5.158;2024-01-27T10:02:17;103578.59;;;3.59;80.67
65329;BME280;51941;52.210;5.158;2024-01-27T10:04:48;103583.94;;;3.64;80.69
65329;BME280;51941;52.210;5.158;2024-01-27T10:07:15;103582.13;;;3.65;80.57
65329;BME280;51941;52.210;5.158;2024-01-27T10:09:43;103580.00;;;3.72;80.37
65329;BME280;51941;52.210;5.158;2024-01-27T10:12:10;103584.91;;;3.80;80.63
65329;BME280;51941;52.210;5.158;2024-01-27T10:14:39;103589.75;;;3.88;80.57
65329;BME280;51941;52.210;5.158;2024-01-27T10:17:08;103587.66;;;3.95;80.43
65329;BME280;51941;52.210;5.158;2024-01-27T10:19:35;103586.66;;;4.02;80.46
65329;BME280;51941;52.210;5.158;2024-01-27T10:22:02;103596.53;;;4.06;80.39
65329;BME280;51941;52.210;5.158;2024-01-27T10:24:31;103602.47;;;4.13;80.35
65329;BME280;51941;52.210;5.158;2024-01-27T10:27:00;103603.28;;;4.19;80.46
65329;BME280;51941;52.210;5.158;2024-01-27T10:29:27;103602.53;;;4.24;80.40
65329;BME280;51941;52.210;5.158;2024-01-27T10:31:54;103606.28;;;4.28;80.20
65329;BME280;51941;52.210;5.158;2024-01-27T10:34:21;103597.50;;;4.32;80.19
65329;BME280;51941;52.210;5.158;2024-01-27T10:36:47;103594.03;;;4.37;79.99
65329;BME280;51941;52.210;5.158;2024-01-27T10:39:18;103588.75;;;4.42;79.99
65329;BME280;51941;52.210;5.158;2024-01-27T10:41:47;103584.50;;;4.46;80.02
65329;BME280;51941;52.210;5.158;2024-01-27T10:44:17;103579.44;;;4.50;79.93
65329;BME280;51941;52.210;5.158;2024-01-27T10:46:45;103581.88;;;4.56;79.60
65329;BME280;51941;52.210;5.158;2024-01-27T10:49:13;103579.78;;;4.64;80.06
65329;BME280;51941;52.210;5.158;2024-01-27T10:51:43;103570.16;;;4.68;79.74
65329;BME280;51941;52.210;5.158;2024-01-27T10:54:14;103581.94;;;4.72;79.94
65329;BME280;51941;52.210;5.158;2024-01-27T10:56:42;103583.28;;;4.74;79.25
65329;BME280;51941;52.210;5.158;2024-01-27T10:59:09;103580.63;;;4.80;79.66
65329;BME280;51941;52.210;5.158;2024-01-27T11:01:41;103579.56;;;4.86;79.95
65329;BME280;51941;52.210;5.158;2024-01-27T11:04:11;103580.94;;;4.93;79.74
65329;BME280;51941;52.210;5.158;2024-01-27T11:06:39;103572.69;;;4.95;79.13
65329;BME280;51941;52.210;5.158;2024-01-27T11:09:08;103572.97;;;4.99;79.05
65329;BME280;51941;52.210;5.158;2024-01-27T11:11:37;103577.25;;;5.00;78.34
65329;BME280;51941;52.210;5.158;2024-01-27T11:14:06;103578.59;;;5.02;78.92
65329;BME280;51941;52.210;5.158;2024-01-27T11:16:34;103580.22;;;5.08;79.20
65329;BME280;51941;52.210;5.158;2024-01-27T11:19:03;103575.94;;;5.12;79.08
65329;BME280;51941;52.210;5.158;2024-01-27T11:21:30;103571.94;;;5.15;78.41
65329;BME280;51941;52.210;5.158;2024-01-27T11:23:56;103575.69;;;5.14;77.18
65329;BME280;51941;52.210;5.158;2024-01-27T11:26:23;103574.38;;;5.22;78.37
65329;BME280;51941;52.210;5.158;2024-01-27T11:28:51;103574.09;;;5.28;78.88
65329;BME280;51941;52.210;5.158;2024-01-27T11:31:19;103567.97;;;5.28;77.29
65329;BME280;51941;52.210;5.158;2024-01-27T11:33:48;103563.69;;;5.32;77.44
65329;BME280;51941;52.210;5.158;2024-01-27T11:36:20;103554.06;;;5.36;76.88
65329;BME280;51941;52.210;5.158;2024-01-27T11:38:48;103559.66;;;5.45;77.87
65329;BME280;51941;52.210;5.158;2024-01-27T11:41:23;103552.47;;;5.45;76.57
65329;BME280;51941;52.210;5.158;2024-01-27T11:43:54;103556.75;;;5.51;76.45
65329;BME280;51941;52.210;5.158;2024-01-27T11:46:21;103543.91;;;5.59;76.12
65329;BME280;51941;52.210;5.158;2024-01-27T11:48:48;103549.50;;;5.62;75.79
65329;BME280;51941;52.210;5.158;2024-01-27T11:51:15;103543.09;;;5.68;76.30
65329;BME280;51941;52.210;5.158;2024-01-27T11:53:45;103549.75;;;5.76;77.19
65329;BME280;51941;52.210;5.158;2024-01-27T11:56:12;103543.06;;;5.79;76.68
65329;BME280;51941;52.210;5.158;2024-01-27T11:58:45;103540.13;;;5.85;75.71
65329;BME280;51941;52.210;5.158;2024-01-27T12:01:14;103544.69;;;5.85;73.70
65329;BME280;51941;52.210;5.158;2024-01-27T12:03:41;103548.13;;;5.96;75.62
65329;BME280;51941;52.210;5.158;2024-01-27T12:06:08;103555.06;;;6.02;75.22
65329;BME280;51941;52.210;5.158;2024-01-27T12:08:35;103540.59;;;6.08;75.56
65329;BME280;51941;52.210;5.158;2024-01-27T12:11:03;103539.25;;;6.16;75.79
65329;BME280;51941;52.210;5.158;2024-01-27T12:13:30;103537.34;;;6.21;75.45
65329;BME280;51941;52.210;5.158;2024-01-27T12:15:57;103517.53;;;6.27;75.10
65329;BME280;51941;52.210;5.158;2024-01-27T12:18:24;103527.69;;;6.30;74.37
65329;BME280;51941;52.210;5.158;2024-01-27T12:20:55;103519.66;;;6.30;71.48
65329;BME280;51941;52.210;5.158;2024-01-27T12:23:22;103518.06;;;6.34;73.13
65329;BME280;51941;52.210;5.158;2024-01-27T12:25:52;103514.28;;;6.36;72.29
65329;BME280;51941;52.210;5.158;2024-01-27T12:28:22;103510.28;;;6.38;72.89
65329;BME280;51941;52.210;5.158;2024-01-27T12:30:49;103509.97;;;6.40;72.89
65329;BME280;51941;52.210;5.158;2024-01-27T12:33:15;103514.00;;;6.37;71.56
65329;BME280;51941;52.210;5.158;2024-01-27T12:35:45;103507.03;;;6.41;72.42
65329;BME280;51941;52.210;5.158;2024-01-27T12:38:11;103510.53;;;6.37;70.62
65329;BME280;51941;52.210;5.158;2024-01-27T12:40:38;103520.47;;;6.36;71.54
65329;BME280;51941;52.210;5.158;2024-01-27T12:43:05;103523.38;;;6.40;72.23
65329;BME280;51941;52.210;5.158;2024-01-27T12:45:33;103527.91;;;6.39;70.42
65329;BME280;51941;52.210;5.158;2024-01-27T12:48:00;103520.16;;;6.43;70.95
65329;BME280;51941;52.210;5.158;2024-01-27T12:50:27;103518.53;;;6.47;71.76
65329;BME280;51941;52.210;5.158;2024-01-27T12:52:55;103521.19;;;6.52;71.71
65329;BME280;51941;52.210;5.158;2024-01-27T12:55:25;103517.97;;;6.50;71.02
65329;BME280;51941;52.210;5.158;2024-01-27T12:57:51;103518.75;;;6.56;70.89
65329;BME280;51941;52.210;5.158;2024-01-27T13:00:18;103516.59;;;6.58;71.02